Time;durP1;ratioP1;P1;durP2;ratioP2;P2;SDS_P1;SDS_P2;PMS_P1;PMS_P2;Temp;Humidity;BMP_temperature;BMP_pressure;BME280_temperature;BME280_humidity;BME280_pressure;Samples;Min_cycle;Max_cycle;Signal;HPM_P1;HPM_P2
2023/02/14 00:01:38;;;;;;;26.83;16.35;;;3.10;99.90;;;;;;5035357;28;20681;-62
2023/02/14 00:04:05;;;;;;;30.42;18.88;;;3.10;99.90;;;;;;5034254;28;20421;-63
2023/02/14 00:06:34;;;;;;;29.90;20.08;;;3.10;99.90;;;;;;5033566;28;20421;-63
2023/02/14 00:09:01;;;;;;;30.15;20.60;;;3.10;99.90;;;;;;5034143;28;20461;-64
2023/02/14 00:11:28;;;;;;;34.15;21.88;;;3.10;99.90;;;;;;5033613;28;20419;-63
2023/02/14 00:16:41;;;;;;;32.63;21.88;;;3.10;99.90;;;;;;5034103;28;20434;-62
2023/02/14 00:19:07;;;;;;;34.00;21.15;;;3.10;99.90;;;;;;5033555;28;20419;-63
2023/02/14 00:21:36;;;;;;;33.88;21.45;;;3.00;99.90;;;;;;5041845;28;20419;-63
2023/02/14 00:24:04;;;;;;;31.98;21.88;;;3.00;99.90;;;;;;5035416;28;20415;-63
2023/02/14 00:26:31;;;;;;;34.33;19.80;;;3.00;99.90;;;;;;5036855;28;20323;-63
2023/02/14 00:28:57;;;;;;;24.33;17.05;;;3.00;99.90;;;;;;5039637;28;20500;-62
2023/02/14 00:31:24;;;;;;;29.25;18.35;;;3.00;99.90;;;;;;5039099;28;20223;-63
2023/02/14 00:33:52;;;;;;;24.55;16.45;;;2.90;99.90;;;;;;5038749;28;20309;-63
2023/02/14 00:36:20;;;;;;;27.83;16.45;;;2.90;99.90;;;;;;5038750;28;20228;-62
2023/02/14 00:38:47;;;;;;;26.27;17.42;;;2.90;99.90;;;;;;5038830;28;20224;-63
2023/02/14 00:41:18;;;;;;;24.73;15.73;;;2.80;99.90;;;;;;5040299;28;20202;-63
2023/02/14 00:43:45;;;;;;;26.05;15.15;;;2.80;99.90;;;;;;5040076;28;20195;-63
2023/02/14 00:46:12;;;;;;;24.63;15.57;;;2.80;99.90;;;;;;5041116;28;20222;-63
2023/02/14 00:48:39;;;;;;;22.17;14.00;;;2.80;99.90;;;;;;5041989;28;20208;-63
2023/02/14 00:51:08;;;;;;;27.00;15.30;;;2.70;99.90;;;;;;5042217;28;20211;-63
2023/02/14 00:53:35;;;;;;;36.47;20.63;;;2.70;99.90;;;;;;5040579;28;20422;-63
2023/02/14 00:56:02;;;;;;;35.67;22.02;;;2.70;99.90;;;;;;5039931;28;20772;-63
2023/02/14 00:58:29;;;;;;;28.23;18.23;;;2.70;99.90;;;;;;5041555;28;20216;-62
2023/02/14 01:00:56;;;;;;;33.85;19.10;;;2.70;99.90;;;;;;5041183;28;20209;-63
2023/02/14 01:03:24;;;;;;;35.65;21.20;;;2.70;99.90;;;;;;5037614;28;20497;-62
2023/02/14 01:05:51;;;;;;;42.40;23.55;;;2.70;99.90;;;;;;5035782;28;20850;-62
2023/02/14 01:08:19;;;;;;;33.13;18.38;;;2.70;99.90;;;;;;5037389;28;20202;-62
2023/02/14 01:10:46;;;;;;;33.60;20.02;;;2.70;99.90;;;;;;5037000;28;20203;-63
2023/02/14 01:13:13;;;;;;;31.27;18.15;;;2.70;99.90;;;;;;5037408;28;20205;-62
2023/02/14 01:15:41;;;;;;;32.28;17.40;;;2.60;99.90;;;;;;5037260;28;20231;-62
2023/02/14 01:18:08;;;;;;;31.42;17.55;;;2.60;99.90;;;;;;5036802;28;20209;-63
2023/02/14 01:20:36;;;;;;;30.80;17.42;;;2.60;99.90;;;;;;5036919;28;20205;-62
2023/02/14 01:23:03;;;;;;;29.05;18.33;;;2.60;99.90;;;;;;5036476;28;20707;-62
2023/02/14 01:25:31;;;;;;;34.83;18.75;;;2.60;99.90;;;;;;5036432;28;20235;-62
2023/02/14 01:27:59;;;;;;;39.53;22.40;;;2.60;99.90;;;;;;5035402;28;20418;-61
2023/02/14 01:30:25;;;;;;;40.28;23.70;;;2.60;99.90;;;;;;5034851;28;20787;-63
2023/02/14 01:32:52;;;;;;;36.58;19.25;;;2.50;99.90;;;;;;5036301;28;20201;-63
2023/02/14 01:35:19;;;;;;;31.02;18.73;;;2.50;99.90;;;;;;5036279;28;20227;-62
2023/02/14 01:37:46;;;;;;;32.55;18.52;;;2.50;99.90;;;;;;5035271;28;20723;-62
2023/02/14 01:40:13;;;;;;;;;;;2.40;99.90;;;;;;5036582;28;20517;-62
2023/02/14 01:42:41;;;;;;;38.47;21.60;;;2.40;99.90;;;;;;5034409;28;20420;-63
2023/02/14 01:45:16;;;;;;;44.13;23.80;;;2.40;99.90;;;;;;5034941;28;20418;-61
2023/02/14 01:47:45;;;;;;;47.33;25.25;;;2.40;99.90;;;;;;5034887;28;20411;-63
2023/02/14 01:50:18;;;;;;;39.92;22.73;;;2.40;99.90;;;;;;5035475;28;20451;-62
2023/02/14 01:52:48;;;;;;;42.50;21.08;;;2.40;99.90;;;;;;5035984;28;20189;-62
2023/02/14 01:55:19;;;;;;;31.83;19.05;;;2.30;99.90;;;;;;5035612;28;20667;-63
2023/02/14 01:57:49;;;;;;;28.42;17.75;;;2.30;99.90;;;;;;5039546;28;20209;-63
2023/02/14 02:03:04;;;;;;;36.53;17.42;;;2.30;99.90;;;;;;5040710;28;20197;-62
2023/02/14 02:05:31;;;;;;;33.33;18.70;;;2.30;99.90;;;;;;5039954;28;20225;-62
2023/02/14 02:08:00;;;;;;;41.38;23.23;;;2.30;99.90;;;;;;5039227;28;20430;-63
2023/02/14 02:10:27;;;;;;;45.35;25.52;;;2.30;99.90;;;;;;5039877;28;20415;-62
2023/02/14 02:12:58;;;;;;;36.20;20.42;;;2.20;99.90;;;;;;5037243;28;20214;-63
2023/02/14 02:15:27;;;;;;;41.45;23.75;;;2.20;99.90;;;;;;5034625;28;20421;-62
2023/02/14 02:18:02;;;;;;;46.37;25.63;;;2.20;99.90;;;;;;5034309;28;20430;-63
2023/02/14 02:21:05;;;;;;;43.25;25.15;;;2.20;99.90;;;;;;5034648;28;20479;-61
2023/02/14 02:24:11;;;;;;;43.53;24.93;;;2.20;99.90;;;;;;5034426;28;20419;-63
2023/02/14 02:27:18;;;;;;;43.45;25.33;;;2.20;99.90;;;;;;5034203;28;20418;-62
2023/02/14 02:30:25;;;;;;;39.47;24.35;;;2.20;99.90;;;;;;5034590;28;20775;-62
2023/02/14 02:33:15;;;;;;;43.15;24.65;;;2.20;99.90;;;;;;5034019;28;20909;-62
2023/02/14 02:35:57;;;;;;;42.90;24.40;;;2.10;99.90;;;;;;5034023;28;20419;-62
2023/02/14 02:38:42;;;;;;;41.00;24.50;;;2.10;99.90;;;;;;5034301;28;20430;-61
2023/02/14 02:41:22;;;;;;;42.63;25.63;;;2.10;99.90;;;;;;5034039;28;20450;-62
2023/02/14 02:43:55;;;;;;;37.85;22.90;;;2.10;99.90;;;;;;5033569;28;20415;-62
2023/02/14 02:54:55;;;;;;;40.03;22.77;;;2.10;99.90;;;;;;5035485;28;20411;-62
2023/02/14 02:57:28;;;;;;;42.55;23.10;;;2.10;99.90;;;;;;5035686;28;20759;-60
2023/02/14 02:59:57;;;;;;;38.42;23.80;;;2.10;99.90;;;;;;5034629;28;20419;-62
2023/02/14 03:02:28;;;;;;;40.88;23.52;;;2.00;99.90;;;;;;5035988;28;20422;-62
2023/02/14 03:04:57;;;;;;;41.88;23.65;;;2.10;99.90;;;;;;5034896;28;20434;-61
2023/02/14 03:07:38;;;;;;;37.42;21.95;;;2.10;99.90;;;;;;5033159;28;20498;-61
2023/02/14 03:10:11;;;;;;;37.05;21.88;;;2.00;99.90;;;;;;5033012;28;20517;-62
2023/02/14 03:13:05;;;;;;;36.65;20.80;;;2.00;99.90;;;;;;5033825;28;20415;-61
2023/02/14 03:15:52;;;;;;;38.35;21.60;;;2.00;99.90;;;;;;5033568;28;20775;-61
2023/02/14 03:18:32;;;;;;;34.90;21.02;;;2.00;99.90;;;;;;5033305;28;20418;-62
2023/02/14 03:21:06;;;;;;;37.37;20.50;;;2.00;99.90;;;;;;5034207;28;20525;-62
2023/02/14 03:23:40;;;;;;;29.27;18.42;;;2.00;99.90;;;;;;5034503;28;20427;-62
2023/02/14 03:26:12;;;;;;;27.40;16.58;;;2.00;99.90;;;;;;5034179;28;20229;-62
2023/02/14 03:28:43;;;;;;;22.73;14.15;;;1.90;99.90;;;;;;5035372;28;20199;-62
2023/02/14 03:31:18;;;;;;;27.35;16.48;;;1.90;99.90;;;;;;5035937;28;20296;-62
2023/02/14 03:33:50;;;;;;;24.98;14.73;;;1.90;99.90;;;;;;5036250;28;20200;-62
2023/02/14 03:36:22;;;;;;;25.95;15.32;;;1.90;99.90;;;;;;5035794;28;20228;-62
2023/02/14 03:38:56;;;;;;;35.13;20.13;;;1.80;99.90;;;;;;5033922;28;20418;-62
2023/02/14 03:41:27;;;;;;;36.30;20.20;;;1.70;99.90;;;;;;5033079;28;20419;-62
2023/02/14 03:43:57;;;;;;;37.28;21.85;;;1.70;99.90;;;;;;5033368;28;20464;-62
2023/02/14 03:46:27;;;;;;;35.63;19.90;;;1.80;99.90;;;;;;5032784;28;20857;-62
2023/02/14 03:48:58;;;;;;;37.65;21.48;;;1.80;99.90;;;;;;5032739;28;20875;-62
2023/02/14 03:51:27;;;;;;;32.42;18.58;;;1.80;99.90;;;;;;5032557;28;20421;-62
2023/02/14 03:53:58;;;;;;;28.00;15.13;;;1.80;99.90;;;;;;5033999;28;20331;-63
2023/02/14 03:56:34;;;;;;;26.02;15.77;;;1.80;99.90;;;;;;5033578;28;20663;-62
2023/02/14 03:59:07;;;;;;;29.52;13.32;;;1.80;99.90;;;;;;5034041;28;20186;-62
2023/02/14 04:01:37;;;;;;;23.98;12.18;;;1.80;99.90;;;;;;5033492;28;20197;-63
2023/02/14 04:04:05;;;;;;;26.98;16.40;;;1.80;99.90;;;;;;5032787;28;20850;-63
2023/02/14 04:06:32;;;;;;;24.15;15.48;;;1.80;99.90;;;;;;5032375;28;20418;-62
2023/02/14 04:11:10;;;;;;;19.23;13.23;;;1.70;99.90;;;;;;5091725;27;20602;-62
2023/02/14 04:13:37;;;;;;;17.40;12.82;;;1.70;99.90;;;;;;5091222;28;20207;-63
2023/02/14 04:16:05;;;;;;;25.83;12.45;;;1.70;99.90;;;;;;5091239;28;20566;-63
2023/02/14 04:21:16;;;;;;;17.33;12.15;;;1.70;99.90;;;;;;5091158;28;20176;-61
2023/02/14 04:23:42;;;;;;;16.25;10.55;;;1.60;99.90;;;;;;5091620;22;20236;-70
2023/02/14 04:26:10;;;;;;;17.10;9.23;;;1.60;99.90;;;;;;5073145;28;20203;-68
2023/02/14 04:28:38;;;;;;;18.58;10.75;;;1.60;99.90;;;;;;5071574;28;20197;-70
2023/02/14 04:31:06;;;;;;;22.30;11.80;;;1.60;99.90;;;;;;5070229;28;20224;-70
2023/02/14 04:33:33;;;;;;;17.13;10.68;;;1.60;99.90;;;;;;5070237;28;20541;-69
2023/02/14 04:36:00;;;;;;;19.10;10.25;;;1.60;99.90;;;;;;5070845;28;20252;-70
2023/02/14 04:38:27;;;;;;;23.38;12.20;;;1.50;99.90;;;;;;5072826;28;20416;-72
2023/02/14 04:40:54;;;;;;;21.02;13.20;;;1.50;99.90;;;;;;5069729;28;20789;-71
2023/02/14 04:43:22;;;;;;;24.40;13.70;;;1.50;99.90;;;;;;5070670;28;20821;-70
2023/02/14 04:45:49;;;;;;;23.83;14.32;;;1.50;99.90;;;;;;5070529;28;20450;-69
2023/02/14 04:48:16;;;;;;;24.23;14.57;;;1.50;99.90;;;;;;5069795;28;20591;-71
2023/02/14 04:50:43;;;;;;;20.17;13.60;;;1.50;99.90;;;;;;5070230;28;20437;-69
2023/02/14 04:53:09;;;;;;;19.63;12.60;;;1.50;99.90;;;;;;5069193;28;20421;-69
2023/02/14 04:55:36;;;;;;;19.38;12.82;;;1.50;99.90;;;;;;5070037;28;20843;-71
2023/02/14 04:58:03;;;;;;;19.25;12.05;;;1.50;99.90;;;;;;5075663;28;20417;-70
2023/02/14 05:00:31;;;;;;;21.48;12.98;;;1.50;99.90;;;;;;5076568;28;20417;-70
2023/02/14 05:02:58;;;;;;;25.17;12.90;;;1.50;99.90;;;;;;5078546;28;20424;-75
2023/02/14 05:05:25;;;;;;;19.88;12.55;;;1.50;99.90;;;;;;5091066;28;20912;-70
2023/02/14 05:07:52;;;;;;;20.35;13.20;;;1.50;99.90;;;;;;5083852;28;20416;-69
2023/02/14 05:10:19;;;;;;;20.75;13.30;;;1.40;99.90;;;;;;5087470;28;20460;-71
2023/02/14 05:12:45;;;;;;;26.77;13.15;;;1.40;99.90;;;;;;5078997;28;20412;-69
2023/02/14 05:15:12;;;;;;;19.52;13.32;;;1.40;99.90;;;;;;5079855;28;20419;-69
2023/02/14 05:17:40;;;;;;;19.60;13.13;;;1.30;99.90;;;;;;5073993;28;20432;-70
2023/02/14 05:20:08;;;;;;;23.40;14.43;;;1.30;99.90;;;;;;5055424;28;20857;-69
2023/02/14 05:22:35;;;;;;;21.30;13.35;;;1.30;99.90;;;;;;5034972;28;20433;-71
2023/02/14 05:25:02;;;;;;;21.35;13.43;;;1.40;99.90;;;;;;5035306;28;20423;-69
2023/02/14 05:27:29;;;;;;;21.23;13.07;;;1.40;99.90;;;;;;5035725;28;20421;-70
2023/02/14 05:29:56;;;;;;;18.73;11.93;;;1.40;99.90;;;;;;5045013;28;20428;-70
2023/02/14 05:32:22;;;;;;;20.27;12.55;;;1.30;99.90;;;;;;5060761;28;20452;-70
2023/02/14 05:34:50;;;;;;;20.23;12.43;;;1.30;99.90;;;;;;5059884;28;20433;-72
2023/02/14 05:37:17;;;;;;;20.40;13.13;;;1.30;99.90;;;;;;5040943;28;20412;-72
2023/02/14 05:39:44;;;;;;;16.92;11.80;;;1.30;99.90;;;;;;5054806;28;20440;-70
2023/02/14 05:42:11;;;;;;;20.95;13.20;;;1.30;99.90;;;;;;5058354;28;20425;-71
2023/02/14 05:44:38;;;;;;;19.73;12.23;;;1.30;99.90;;;;;;5053780;28;20911;-71
2023/02/14 05:47:04;;;;;;;21.08;13.10;;;1.30;99.90;;;;;;5066338;28;20435;-71
2023/02/14 05:49:31;;;;;;;19.38;12.88;;;1.30;99.90;;;;;;5059210;28;20427;-70
2023/02/14 05:52:00;;;;;;;21.67;13.35;;;1.30;99.90;;;;;;5065484;28;20518;-71
2023/02/14 05:54:27;;;;;;;19.05;12.65;;;1.30;99.90;;;;;;5060637;28;20990;-72
2023/02/14 05:56:53;;;;;;;22.30;13.90;;;1.30;99.90;;;;;;5059634;28;20502;-70
2023/02/14 05:59:20;;;;;;;22.70;13.18;;;1.20;99.90;;;;;;5056727;28;20422;-71
2023/02/14 06:01:47;;;;;;;21.83;13.75;;;1.20;99.90;;;;;;5052004;28;20437;-74
2023/02/14 06:04:14;;;;;;;24.08;14.25;;;1.20;99.90;;;;;;5067568;28;20463;-71
2023/02/14 06:06:41;;;;;;;21.52;13.32;;;1.20;99.90;;;;;;5034417;28;20891;-70
2023/02/14 06:09:09;;;;;;;25.42;14.18;;;1.20;99.90;;;;;;5055981;28;20459;-70
2023/02/14 06:11:36;;;;;;;24.52;14.93;;;1.20;99.90;;;;;;5035203;28;20431;-70
2023/02/14 06:14:03;;;;;;;22.40;14.50;;;1.20;99.90;;;;;;5042154;28;20437;-70
2023/02/14 06:16:30;;;;;;;21.05;13.63;;;1.20;99.90;;;;;;5054220;28;20497;-70
2023/02/14 06:18:57;;;;;;;21.50;13.15;;;1.20;99.90;;;;;;5055773;28;20442;-71
2023/02/14 06:21:24;;;;;;;23.77;13.75;;;1.20;99.90;;;;;;5060942;28;21775;-71
2023/02/14 06:23:51;;;;;;;20.13;13.00;;;1.20;99.90;;;;;;5059265;28;20440;-71
2023/02/14 06:26:19;;;;;;;23.87;14.67;;;1.20;99.90;;;;;;5062536;28;20425;-70
2023/02/14 06:28:46;;;;;;;22.85;13.80;;;1.20;99.90;;;;;;5052787;28;20461;-70
2023/02/14 06:31:16;;;;;;;22.08;13.75;;;1.20;99.90;;;;;;5048787;28;20475;-72
2023/02/14 06:33:43;;;;;;;22.98;13.40;;;1.20;99.90;;;;;;5050540;28;20433;-71
2023/02/14 06:36:10;;;;;;;22.93;13.17;;;1.20;99.90;;;;;;5050108;28;20444;-71
2023/02/14 06:38:37;;;;;;;26.60;13.80;;;1.20;99.90;;;;;;5054801;28;20421;-72
2023/02/14 06:41:05;;;;;;;22.17;14.05;;;1.20;99.90;;;;;;5054411;28;20862;-70
2023/02/14 06:43:34;;;;;;;23.55;13.95;;;1.20;99.90;;;;;;5055139;28;20410;-71
2023/02/14 06:46:01;;;;;;;21.20;12.88;;;1.20;99.90;;;;;;5058864;28;20502;-71
2023/02/14 06:48:28;;;;;;;18.45;12.60;;;1.20;99.90;;;;;;5064553;28;20421;-70
2023/02/14 06:50:55;;;;;;;19.98;12.27;;;1.20;99.90;;;;;;5054766;28;20447;-70
2023/02/14 06:53:23;;;;;;;20.52;12.77;;;1.30;99.90;;;;;;5054948;28;20417;-70
2023/02/14 06:55:50;;;;;;;19.00;12.70;;;1.30;99.90;;;;;;5054448;28;20901;-70
2023/02/14 06:58:17;;;;;;;20.45;12.63;;;1.30;99.90;;;;;;5054961;28;20409;-70
2023/02/14 07:00:46;;;;;;;20.23;13.97;;;1.30;99.90;;;;;;5049241;28;20514;-69
2023/02/14 07:03:12;;;;;;;19.60;12.93;;;1.40;99.90;;;;;;5050991;28;20429;-70
2023/02/14 07:05:39;;;;;;;17.87;12.20;;;1.40;99.90;;;;;;5053653;28;20420;-70
2023/02/14 07:08:07;;;;;;;19.20;13.20;;;1.40;99.90;;;;;;5053619;28;20980;-71
2023/02/14 07:10:34;;;;;;;17.80;11.90;;;1.40;99.90;;;;;;5053378;28;20816;-72
2023/02/14 07:13:01;;;;;;;16.52;12.25;;;1.40;99.90;;;;;;5053382;28;20490;-70
2023/02/14 07:15:28;;;;;;;18.05;12.63;;;1.50;99.90;;;;;;5053111;28;20488;-72
2023/02/14 07:17:57;;;;;;;18.20;12.60;;;1.50;99.90;;;;;;5052834;28;20884;-71
2023/02/14 07:20:24;;;;;;;15.82;12.35;;;1.60;99.90;;;;;;5052902;28;20428;-70
2023/02/14 07:22:51;;;;;;;17.70;12.07;;;1.60;99.90;;;;;;5053339;28;20516;-70
2023/02/14 07:25:18;;;;;;;15.80;11.80;;;1.70;99.90;;;;;;5052306;28;20884;-70
2023/02/14 07:27:45;;;;;;;17.83;12.73;;;1.80;99.90;;;;;;5053040;28;20853;-71
2023/02/14 07:30:13;;;;;;;17.60;12.13;;;1.90;99.90;;;;;;5053028;28;20754;-72
2023/02/14 07:32:40;;;;;;;15.77;11.50;;;2.00;99.90;;;;;;5053695;28;20427;-73
2023/02/14 07:35:09;;;;;;;16.08;12.30;;;2.10;99.90;;;;;;5052378;28;20417;-71
2023/02/14 07:37:36;;;;;;;16.40;11.63;;;2.20;99.90;;;;;;5052191;28;20786;-71
2023/02/14 07:40:03;;;;;;;13.70;10.57;;;2.40;99.90;;;;;;5052782;28;20417;-71
2023/02/14 07:42:30;;;;;;;15.27;11.18;;;2.50;99.90;;;;;;5053127;28;20413;-72
2023/02/14 07:44:57;;;;;;;14.52;11.38;;;2.70;99.90;;;;;;5052323;28;20419;-71
2023/02/14 07:47:25;;;;;;;14.65;11.07;;;2.80;99.90;;;;;;5052682;28;20417;-72
2023/02/14 07:49:52;;;;;;;13.48;10.60;;;3.00;99.90;;;;;;5053692;28;20428;-72
2023/02/14 07:52:20;;;;;;;14.13;11.13;;;3.10;99.90;;;;;;5052742;28;20419;-72
2023/02/14 07:54:47;;;;;;;14.85;10.50;;;3.30;99.90;;;;;;5053030;28;20409;-72
2023/02/14 07:57:14;;;;;;;13.15;10.68;;;3.40;99.90;;;;;;5053040;28;20762;-73
2023/02/14 07:59:41;;;;;;;14.02;10.52;;;3.50;99.90;;;;;;5053590;28;20873;-71
2023/02/14 08:02:07;;;;;;;15.50;11.50;;;3.60;99.90;;;;;;5053004;28;20405;-73
2023/02/14 08:04:34;;;;;;;14.17;11.67;;;3.80;99.90;;;;;;5054206;28;20416;-73
2023/02/14 08:07:01;;;;;;;13.35;10.60;;;3.90;99.90;;;;;;5052956;28;20894;-73
2023/02/14 08:09:29;;;;;;;14.63;10.40;;;4.10;99.90;;;;;;5053289;28;20443;-72
2023/02/14 08:14:43;;;;;;;13.10;9.90;;;4.40;99.90;;;;;;5054247;28;20482;-72
2023/02/14 08:17:12;;;;;;;11.93;10.00;;;4.50;99.90;;;;;;5055813;28;20422;-73
2023/02/14 08:19:39;;;;;;;12.32;10.75;;;4.50;99.90;;;;;;5054473;28;20494;-72
2023/02/14 08:22:06;;;;;;;12.70;10.38;;;4.60;99.90;;;;;;5053959;28;20413;-72
2023/02/14 08:24:34;;;;;;;13.55;10.63;;;4.70;99.90;;;;;;5054105;28;20496;-72
2023/02/14 08:27:01;;;;;;;12.88;9.95;;;4.80;99.90;;;;;;5054679;28;20615;-73
2023/02/14 08:29:28;;;;;;;11.85;10.02;;;5.00;99.90;;;;;;5065487;28;20413;-71
2023/02/14 08:31:59;;;;;;;12.25;9.95;;;5.10;99.90;;;;;;5055699;28;20429;-72
2023/02/14 08:34:26;;;;;;;12.73;9.90;;;5.30;99.90;;;;;;5054495;28;20414;-72
2023/02/14 08:36:54;;;;;;;12.93;9.80;;;5.60;99.90;;;;;;5054363;28;20425;-72
2023/02/14 08:39:21;;;;;;;12.88;10.07;;;5.70;99.90;;;;;;5054194;28;20413;-71
2023/02/14 08:41:49;;;;;;;11.65;9.80;;;6.00;99.90;;;;;;5053652;28;20413;-73
2023/02/14 08:44:16;;;;;;;12.73;10.30;;;6.20;99.90;;;;;;5053414;28;20428;-71
2023/02/14 08:46:43;;;;;;;12.50;10.07;;;6.30;99.90;;;;;;5055473;28;20421;-71
2023/02/14 08:49:10;;;;;;;11.27;9.45;;;6.30;99.90;;;;;;5056443;28;20417;-72
2023/02/14 08:51:37;;;;;;;14.30;10.80;;;6.20;99.90;;;;;;5057355;28;20425;-71
2023/02/14 08:54:04;;;;;;;12.68;10.60;;;6.10;99.90;;;;;;5054639;28;20432;-72
2023/02/14 08:56:31;;;;;;;13.57;10.52;;;6.00;99.90;;;;;;5058261;28;20420;-72
2023/02/14 08:59:00;;;;;;;13.77;10.20;;;6.00;99.90;;;;;;5061200;28;20427;-71
2023/02/14 09:01:27;;;;;;;13.00;10.45;;;6.10;99.90;;;;;;5059630;28;20421;-72
2023/02/14 09:03:55;;;;;;;12.40;9.80;;;6.20;99.90;;;;;;5060609;28;20425;-73
2023/02/14 09:06:22;;;;;;;13.85;10.07;;;6.30;99.90;;;;;;5059094;28;20850;-72
2023/02/14 09:08:50;;;;;;;13.60;10.60;;;6.30;99.90;;;;;;5061443;28;20940;-71
2023/02/14 09:11:20;;;;;;;12.52;9.98;;;6.40;99.90;;;;;;5064816;28;20956;-72
2023/02/14 09:13:48;;;;;;;11.98;10.00;;;6.50;99.90;;;;;;5066204;28;20777;-71
2023/02/14 09:16:19;;;;;;;13.05;10.60;;;6.50;99.90;;;;;;5064527;28;20413;-72
2023/02/14 09:18:47;;;;;;;12.73;9.75;;;6.60;99.90;;;;;;5065062;28;20453;-71
2023/02/14 09:21:17;;;;;;;13.70;11.07;;;6.70;99.90;;;;;;5064033;28;20469;-73
2023/02/14 09:23:44;;;;;;;12.90;10.18;;;6.90;99.90;;;;;;5063838;28;20417;-72
2023/02/14 09:26:13;;;;;;;13.45;11.18;;;7.00;99.90;;;;;;5062957;28;20420;-72
2023/02/14 09:28:40;;;;;;;12.65;10.50;;;7.20;99.90;;;;;;5060786;28;20414;-73
2023/02/14 09:31:12;;;;;;;13.93;10.63;;;7.30;99.90;;;;;;5059188;28;20425;-73
2023/02/14 09:33:41;;;;;;;13.88;11.15;;;7.40;99.90;;;;;;5060588;28;20416;-72
2023/02/14 09:36:21;;;;;;;12.93;11.48;;;7.40;99.90;;;;;;5059517;28;20425;-73
2023/02/14 09:38:48;;;;;;;13.25;11.25;;;7.50;99.90;;;;;;5058981;28;20413;-70
2023/02/14 09:41:34;;;;;;;13.85;11.48;;;7.60;99.90;;;;;;5057587;28;20426;-72
2023/02/14 09:44:04;;;;;;;12.73;10.50;;;7.60;99.90;;;;;;5057067;28;20464;-71
2023/02/14 09:46:37;;;;;;;14.07;10.60;;;7.70;99.90;;;;;;5056879;28;20453;-73
2023/02/14 09:49:08;;;;;;;14.17;10.73;;;7.70;99.90;;;;;;5056827;28;20427;-73
2023/02/14 09:51:37;;;;;;;14.35;10.50;;;7.90;99.90;;;;;;5056959;28;20508;-73
2023/02/14 09:54:11;;;;;;;15.52;11.27;;;8.00;99.90;;;;;;5056898;28;20424;-72
2023/02/14 09:56:47;;;;;;;14.60;11.27;;;8.20;99.90;;;;;;5058150;28;20423;-71
2023/02/14 09:59:19;;;;;;;13.95;11.05;;;8.30;99.90;;;;;;5060879;28;20418;-74
2023/02/14 10:01:50;;;;;;;14.55;11.73;;;8.50;99.90;;;;;;5056379;28;20416;-73
2023/02/14 10:04:27;;;;;;;14.37;11.00;;;8.60;99.90;;;;;;5058809;28;20187;-71
2023/02/14 10:07:00;;;;;;;14.87;10.67;;;8.70;99.90;;;;;;5059557;28;20446;-73
2023/02/14 10:09:43;;;;;;;13.40;10.33;;;8.70;99.90;;;;;;5060322;28;20433;-72
2023/02/14 10:12:18;;;;;;;12.33;10.13;;;8.80;99.90;;;;;;5062215;28;20938;-75
2023/02/14 10:14:45;;;;;;;12.00;9.55;;;8.90;99.90;;;;;;5057324;28;20438;-73
2023/02/14 10:17:18;;;;;;;10.00;8.37;;;9.00;99.90;;;;;;5057141;28;20211;-72
2023/02/14 10:19:51;;;;;;;13.68;9.80;;;9.10;99.90;;;;;;5056102;28;20436;-72
2023/02/14 10:25:13;;;;;;;13.30;11.07;;;9.40;99.90;;;;;;5054635;28;20439;-62
2023/02/14 10:27:44;;;;;;;14.25;11.02;;;9.60;99.90;;;;;;5056594;28;20781;-63
2023/02/14 10:30:15;;;;;;;11.50;9.90;;;9.70;99.90;;;;;;5057487;28;20420;-64
2023/02/14 10:32:46;;;;;;;14.57;11.50;;;9.80;99.90;;;;;;5060128;28;20433;-63
2023/02/14 10:35:25;;;;;;;14.07;10.63;;;9.80;99.90;;;;;;5057332;28;20431;-62
2023/02/14 10:38:03;;;;;;;14.05;10.65;;;9.90;99.90;;;;;;5057188;28;20417;-63
2023/02/14 10:40:53;;;;;;;11.00;9.57;;;10.00;99.90;;;;;;5057557;28;20482;-63
2023/02/14 10:43:30;;;;;;;12.30;10.20;;;10.00;99.90;;;;;;5056455;28;20409;-62
2023/02/14 10:46:05;;;;;;;13.23;11.10;;;10.10;99.90;;;;;;5055378;28;20417;-62
2023/02/14 10:48:50;;;;;;;13.20;10.20;;;10.10;99.90;;;;;;5054704;28;20532;-63
2023/02/14 10:51:24;;;;;;;13.25;10.05;;;10.30;99.90;;;;;;5055438;28;20425;-64
2023/02/14 10:54:03;;;;;;;14.18;10.77;;;10.30;99.90;;;;;;5054755;28;20410;-64
2023/02/14 10:56:35;;;;;;;14.27;10.95;;;10.40;99.90;;;;;;5054282;28;20773;-62
2023/02/14 10:59:07;;;;;;;11.43;9.63;;;10.40;99.90;;;;;;5054413;28;20428;-63
2023/02/14 11:01:35;;;;;;;14.02;10.73;;;10.50;99.90;;;;;;5054701;28;20416;-64
2023/02/14 11:04:05;;;;;;;11.95;9.52;;;10.50;99.90;;;;;;5054296;28;20503;-63
2023/02/14 11:06:34;;;;;;;11.60;9.97;;;10.50;99.90;;;;;;5054337;28;20414;-63
2023/02/14 11:09:02;;;;;;;11.23;8.83;;;10.60;99.90;;;;;;5054621;28;20440;-62
2023/02/14 11:11:33;;;;;;;12.10;9.55;;;10.70;99.90;;;;;;5053649;28;20440;-64
2023/02/14 11:14:17;;;;;;;10.70;9.60;;;10.80;99.90;;;;;;5053744;28;20417;-63
2023/02/14 11:16:44;;;;;;;13.32;10.02;;;10.90;98.90;;;;;;5054223;28;20877;-63
2023/02/14 11:19:21;;;;;;;14.40;10.10;;;11.00;98.00;;;;;;5053938;28;20417;-62
2023/02/14 11:21:50;;;;;;;12.35;10.00;;;11.10;97.60;;;;;;5053917;28;20405;-63
2023/02/14 11:24:24;;;;;;;12.40;9.77;;;11.20;96.60;;;;;;5054352;28;20413;-64
2023/02/14 11:26:54;;;;;;;12.95;9.73;;;11.20;96.80;;;;;;5056311;28;20409;-63
2023/02/14 11:29:27;;;;;;;11.48;9.55;;;11.30;97.70;;;;;;5060834;28;20549;-63
2023/02/14 11:31:54;;;;;;;12.55;9.60;;;11.30;96.60;;;;;;5059583;28;20429;-64
2023/02/14 11:34:32;;;;;;;8.80;7.90;;;11.40;96.00;;;;;;5061610;28;20616;-63
2023/02/14 11:37:00;;;;;;;11.70;7.90;;;11.30;95.70;;;;;;5061705;28;20440;-64
2023/02/14 11:39:31;;;;;;;9.23;8.20;;;11.40;96.10;;;;;;5063096;28;20500;-65
2023/02/14 11:41:59;;;;;;;11.50;7.70;;;11.40;96.20;;;;;;5062046;28;20441;-63
2023/02/14 11:44:29;;;;;;;12.53;9.07;;;11.50;96.10;;;;;;5061413;28;20886;-64
2023/02/14 11:47:15;;;;;;;9.83;8.57;;;11.60;96.00;;;;;;5061248;28;20823;-63
2023/02/14 11:49:54;;;;;;;8.20;7.20;;;11.70;95.90;;;;;;5055550;28;20441;-63
2023/02/14 11:52:25;;;;;;;9.40;7.40;;;11.70;95.90;;;;;;5055882;28;20474;-63
2023/02/14 11:54:53;;;;;;;11.30;8.20;;;11.70;96.00;;;;;;5055630;28;20473;-62
2023/02/14 11:57:25;;;;;;;12.13;8.20;;;11.80;96.00;;;;;;5056584;28;20451;-63
2023/02/14 11:59:53;;;;;;;9.43;8.00;;;11.80;96.00;;;;;;5055686;28;20481;-64
2023/02/14 12:02:28;;;;;;;10.27;8.93;;;11.90;96.00;;;;;;5057201;28;20441;-63
2023/02/14 12:04:58;;;;;;;9.90;7.93;;;11.90;95.70;;;;;;5055333;28;20899;-63
2023/02/14 12:07:30;;;;;;;10.40;7.80;;;11.90;95.20;;;;;;5054394;28;20513;-62
2023/02/14 12:10:15;;;;;;;11.77;8.70;;;11.90;95.20;;;;;;5054692;28;20440;-63
2023/02/14 12:12:50;;;;;;;9.53;8.00;;;11.90;95.10;;;;;;5054210;28;20466;-62
2023/02/14 12:15:35;;;;;;;8.90;7.80;;;12.00;94.90;;;;;;5054950;28;20833;-63
2023/02/14 12:18:24;;;;;;;7.70;6.90;;;12.10;94.50;;;;;;5052932;28;20542;-63
2023/02/14 12:20:57;;;;;;;10.20;8.13;;;12.10;94.20;;;;;;5055745;28;20457;-63
2023/02/14 12:23:34;;;;;;;9.87;7.77;;;12.20;94.20;;;;;;5056226;28;20844;-64
2023/02/14 12:26:06;;;;;;;7.73;7.00;;;12.20;94.10;;;;;;5057169;28;20440;-63
2023/02/14 12:28:40;;;;;;;12.70;8.80;;;12.30;93.90;;;;;;5040304;28;20438;-64
2023/02/14 12:31:10;;;;;;;8.10;6.83;;;12.40;93.80;;;;;;5057323;28;20451;-64
2023/02/14 12:33:38;;;;;;;7.53;6.53;;;12.40;93.40;;;;;;5057904;28;20490;-64
2023/02/14 12:36:14;;;;;;;8.07;6.77;;;12.40;93.20;;;;;;5059088;28;20457;-63
2023/02/14 12:38:53;;;;;;;8.15;6.85;;;12.50;93.10;;;;;;5065543;28;20427;-64
2023/02/14 12:41:32;;;;;;;7.60;6.50;;;12.50;92.30;;;;;;5066052;28;20479;-63
2023/02/14 12:44:03;;;;;;;8.23;6.73;;;12.50;91.40;;;;;;5066802;28;20500;-64
2023/02/14 12:46:51;;;;;;;7.55;6.70;;;12.60;91.40;;;;;;5065890;28;20419;-63
2023/02/14 12:50:09;;;;;;;6.97;6.27;;;12.60;90.60;;;;;;5062866;28;20207;-63
2023/02/14 12:52:54;;;;;;;6.80;6.10;;;12.60;90.40;;;;;;5004985;28;20473;-64
2023/02/14 12:55:36;;;;;;;6.00;4.67;;;12.50;90.50;;;;;;5058097;28;20464;-64
2023/02/14 12:58:11;;;;;;;6.80;5.53;;;12.50;90.80;;;;;;5058037;28;20431;-63
2023/02/14 13:00:48;;;;;;;8.00;6.10;;;12.60;90.80;;;;;;5057200;28;20446;-63
2023/02/14 13:03:37;;;;;;;8.93;6.10;;;12.70;90.80;;;;;;5056840;28;21021;-64
2023/02/14 13:06:09;;;;;;;5.67;5.03;;;12.80;90.50;;;;;;5056938;28;20957;-63
2023/02/14 13:09:00;;;;;;;5.90;5.05;;;12.80;90.30;;;;;;5056734;28;20418;-63
2023/02/14 13:11:36;;;;;;;6.72;5.15;;;12.80;88.20;;;;;;5056640;28;20417;-63
2023/02/14 13:14:17;;;;;;;6.70;4.63;;;12.80;85.00;;;;;;5057847;28;20231;-64
2023/02/14 13:16:50;;;;;;;5.38;4.50;;;12.70;84.70;;;;;;5056637;28;20413;-64
2023/02/14 13:19:32;;;;;;;5.90;4.90;;;12.70;84.80;;;;;;5058586;28;20199;-64
2023/02/14 13:22:01;;;;;;;6.90;4.80;;;12.70;84.40;;;;;;5061619;28;20438;-64